createdAt,value
2022-09-11T00:00:21.772Z,71.31
2022-09-11T00:03:25.134Z,71.17
2022-09-11T00:06:30.661Z,71.71
2022-09-11T00:09:33.996Z,71.72
2022-09-11T00:12:37.248Z,70.80
2022-09-11T00:15:41.761Z,69.86
2022-09-11T00:18:44.956Z,70.84
2022-09-11T00:21:51.068Z,69.87
2022-09-11T00:24:55.111Z,69.57
2022-09-11T00:27:58.313Z,70.62
2022-09-11T00:31:03.520Z,69.44
2022-09-11T00:34:08.077Z,69.49
2022-09-11T00:37:12.714Z,69.26
2022-09-11T00:40:16.604Z,69.02
2022-09-11T00:43:20.225Z,68.69
2022-09-11T00:46:26.245Z,69.26
2022-09-11T00:49:34.123Z,70.19
2022-09-11T00:52:42.418Z,70.47
2022-09-11T00:55:52.320Z,70.31
2022-09-11T00:58:57.203Z,69.91
2022-09-11T01:02:00.779Z,70.17
2022-09-11T01:05:05.064Z,71.29
2022-09-11T01:08:10.534Z,70.86
2022-09-11T01:11:27.639Z,70.63
2022-09-11T01:14:43.112Z,69.56
2022-09-11T01:17:55.324Z,69.95
2022-09-11T01:21:17.587Z,70.25
2022-09-11T01:24:54.611Z,71.13
2022-09-11T01:28:01.347Z,69.11
2022-09-11T01:31:10.347Z,69.04
2022-09-11T01:34:23.017Z,69.16
2022-09-11T01:37:32.643Z,68.00
2022-09-11T01:40:45.931Z,67.28
2022-09-11T01:43:56.792Z,67.03
2022-09-11T01:47:00.451Z,67.04
2022-09-11T01:50:07.189Z,66.63
2022-09-11T01:53:14.256Z,66.39
2022-09-11T01:56:22.438Z,66.00
2022-09-11T01:59:35.180Z,66.08
2022-09-11T02:02:43.280Z,66.29
2022-09-11T02:05:53.289Z,66.27
2022-09-11T02:09:02.791Z,67.13
2022-09-11T02:12:12.460Z,67.45
2022-09-11T02:15:18.976Z,67.38
2022-09-11T02:18:27.022Z,68.02
2022-09-11T02:21:31.088Z,70.23
2022-09-11T02:24:34.791Z,69.62
2022-09-11T02:27:38.036Z,70.22
2022-09-11T02:30:45.090Z,71.44
2022-09-11T02:33:49.004Z,71.76
2022-09-11T02:37:08.108Z,72.98
2022-09-11T02:40:27.608Z,74.13
2022-09-11T02:43:47.978Z,73.40
2022-09-11T02:47:01.061Z,74.19
2022-09-11T02:50:11.860Z,74.03
2022-09-11T02:53:25.246Z,72.94
2022-09-11T02:56:37.013Z,73.22
2022-09-11T02:59:45.099Z,73.60
2022-09-11T03:02:49.879Z,74.79
2022-09-11T03:05:53.323Z,74.56
2022-09-11T03:08:56.885Z,74.01
2022-09-11T03:12:00.167Z,73.61
2022-09-11T03:15:03.543Z,72.37
2022-09-11T03:18:08.316Z,72.47
2022-09-11T03:21:12.281Z,71.43
2022-09-11T03:24:17.210Z,72.24
2022-09-11T03:27:21.691Z,72.92
2022-09-11T03:30:24.997Z,72.71
2022-09-11T03:33:29.887Z,72.30
2022-09-11T03:36:34.491Z,71.78
2022-09-11T03:39:37.817Z,72.58
2022-09-11T03:42:41.159Z,72.62
2022-09-11T03:45:44.869Z,72.98
2022-09-11T03:48:52.564Z,72.27
2022-09-11T03:51:57.729Z,72.15
2022-09-11T03:55:01.454Z,72.27
2022-09-11T03:58:07.236Z,71.86
2022-09-11T04:01:19.534Z,73.04
2022-09-11T04:04:26.023Z,71.44
2022-09-11T04:07:31.586Z,72.63
2022-09-11T04:10:35.391Z,71.75
2022-09-11T04:13:42.205Z,71.57
2022-09-11T04:16:48.941Z,70.98
2022-09-11T04:19:55.079Z,70.77
2022-09-11T04:22:58.452Z,69.47
2022-09-11T04:26:01.841Z,68.59
2022-09-11T04:29:05.182Z,68.26
2022-09-11T04:32:08.654Z,68.04
2022-09-11T04:35:14.363Z,68.08
2022-09-11T04:38:25.963Z,67.62
2022-09-11T04:41:29.888Z,67.43
2022-09-11T04:44:36.253Z,67.47
2022-09-11T04:47:40.051Z,67.00
2022-09-11T04:50:48.740Z,66.55
2022-09-11T04:54:00.748Z,66.57
2022-09-11T04:57:10.914Z,66.87
2022-09-11T05:00:16.380Z,67.19
2022-09-11T05:03:21.043Z,65.69
2022-09-11T05:06:25.722Z,65.76
2022-09-11T05:09:29.969Z,66.34
2022-09-11T05:12:34.759Z,65.32
2022-09-11T05:15:38.564Z,64.14
2022-09-11T05:18:43.409Z,63.94
2022-09-11T05:21:49.351Z,63.09
2022-09-11T05:24:52.735Z,61.20
2022-09-11T05:27:55.993Z,60.33
2022-09-11T05:31:00.067Z,60.62
2022-09-11T05:34:03.668Z,59.52
2022-09-11T05:37:08.364Z,58.62
2022-09-11T05:40:17.520Z,57.96
2022-09-11T05:43:22.508Z,59.07
2022-09-11T05:46:27.239Z,57.18
2022-09-11T05:49:34.405Z,55.51
2022-09-11T05:52:40.138Z,55.41
2022-09-11T05:55:44.122Z,55.06
2022-09-11T05:58:48.706Z,54.28
2022-09-11T06:01:52.798Z,53.09
2022-09-11T06:05:07.188Z,52.26
2022-09-11T06:08:13.026Z,53.64
2022-09-11T06:11:18.205Z,50.69
2022-09-11T06:14:22.336Z,51.33
2022-09-11T06:17:28.411Z,50.80
2022-09-11T06:20:31.670Z,49.66
2022-09-11T06:23:39.946Z,50.77
2022-09-11T06:26:46.610Z,49.92
2022-09-11T06:29:50.902Z,50.28
2022-09-11T06:32:56.659Z,49.10
2022-09-11T06:36:01.584Z,49.76
2022-09-11T06:39:06.326Z,49.45
2022-09-11T06:42:11.451Z,49.84
2022-09-11T06:45:15.159Z,49.57
2022-09-11T06:48:20.160Z,50.45
2022-09-11T06:51:24.576Z,50.39
2022-09-11T06:54:30.675Z,49.03
2022-09-11T06:57:39.864Z,49.74
2022-09-11T07:00:49.331Z,49.17
2022-09-11T07:03:54.474Z,48.81
2022-09-11T07:06:58.529Z,48.01
2022-09-11T07:10:04.432Z,47.23
2022-09-11T07:13:09.001Z,46.86
2022-09-11T07:16:13.757Z,47.50
2022-09-11T07:19:19.639Z,46.88
2022-09-11T07:22:22.923Z,46.53
2022-09-11T07:25:30.624Z,45.33
2022-09-11T07:28:34.526Z,44.94
2022-09-11T07:31:40.224Z,43.71
2022-09-11T07:34:43.599Z,44.25
2022-09-11T07:37:50.753Z,44.35
2022-09-11T07:40:57.136Z,43.28
2022-09-11T07:44:01.428Z,44.18
2022-09-11T07:47:06.743Z,43.21
2022-09-11T07:50:15.947Z,42.76
2022-09-11T07:53:20.131Z,43.65
2022-09-11T07:56:26.527Z,44.12
2022-09-11T07:59:31.091Z,43.63
2022-09-11T08:02:35.091Z,43.74
2022-09-11T08:05:38.350Z,43.00
2022-09-11T08:08:43.627Z,43.39
2022-09-11T08:11:49.618Z,42.62
2022-09-11T08:14:54.808Z,42.56
2022-09-11T08:17:59.660Z,42.44
2022-09-11T08:21:04.613Z,41.76
2022-09-11T08:24:08.240Z,41.23
2022-09-11T08:27:13.573Z,42.33
2022-09-11T08:30:18.971Z,41.62
2022-09-11T08:33:22.472Z,41.46
2022-09-11T08:36:25.973Z,42.40
2022-09-11T08:39:29.479Z,41.00
2022-09-11T08:42:37.847Z,41.96
2022-09-11T08:45:41.440Z,41.14
2022-09-11T08:48:54.698Z,40.91
2022-09-11T08:52:02.252Z,40.01
2022-09-11T08:55:11.001Z,39.45
2022-09-11T08:58:23.973Z,39.19
2022-09-11T09:01:36.143Z,39.58
2022-09-11T09:05:01.052Z,39.17
2022-09-11T09:08:41.985Z,38.71
2022-09-11T09:11:56.925Z,38.40
2022-09-11T09:15:33.334Z,37.96
2022-09-11T09:18:41.940Z,38.58
2022-09-11T09:21:50.860Z,38.36
2022-09-11T09:25:00.629Z,38.81
2022-09-11T09:28:12.539Z,38.63
2022-09-11T09:31:22.140Z,38.32
2022-09-11T09:34:31.465Z,36.31
2022-09-11T09:37:35.215Z,36.47
2022-09-11T09:40:39.928Z,37.58
2022-09-11T09:43:56.245Z,36.09
2022-09-11T09:47:00.888Z,35.73
2022-09-11T09:50:04.851Z,35.35
2022-09-11T09:53:17.936Z,35.54
2022-09-11T09:56:23.873Z,34.64
2022-09-11T09:59:35.514Z,34.86
2022-09-11T10:02:42.967Z,34.98
2022-09-11T10:05:53.492Z,34.90
2022-09-11T10:09:01.373Z,34.22
2022-09-11T10:12:08.931Z,34.75
2022-09-11T10:15:22.541Z,34.05
2022-09-11T10:18:37.900Z,33.94
2022-09-11T10:21:41.029Z,34.29
2022-09-11T10:24:44.331Z,34.95
2022-09-11T10:27:56.333Z,34.58
2022-09-11T10:31:02.552Z,34.04
2022-09-11T10:34:07.637Z,33.03
2022-09-11T10:37:25.382Z,34.07
2022-09-11T10:40:28.796Z,33.17
2022-09-11T10:43:37.888Z,31.85
2022-09-11T10:46:43.182Z,31.74
2022-09-11T10:49:48.115Z,31.15
2022-09-11T10:53:00.121Z,30.51
2022-09-11T10:56:06.058Z,30.72
2022-09-11T10:59:23.568Z,30.45
2022-09-11T11:02:31.760Z,30.19
2022-09-11T11:05:48.000Z,30.29
2022-09-11T11:09:11.145Z,30.05
2022-09-11T11:12:32.782Z,29.40
2022-09-11T11:15:43.838Z,28.71
2022-09-11T11:19:01.310Z,29.10
2022-09-11T11:22:21.294Z,28.73
2022-09-11T11:25:31.429Z,29.20
2022-09-11T11:28:51.598Z,29.48
2022-09-11T11:32:09.684Z,29.01
2022-09-11T11:35:26.037Z,28.41
2022-09-11T11:38:35.911Z,28.32
2022-09-11T11:41:45.029Z,28.06
2022-09-11T11:44:54.423Z,27.73
2022-09-11T11:47:58.260Z,27.04
2022-09-11T11:51:06.216Z,27.19
2022-09-11T11:54:19.173Z,26.84
2022-09-11T11:57:27.573Z,26.23
2022-09-11T12:00:35.475Z,26.87
2022-09-11T12:03:43.919Z,26.92
2022-09-11T12:06:47.247Z,27.89
2022-09-11T12:09:54.165Z,27.65
2022-09-11T12:13:01.700Z,28.79
2022-09-11T12:16:17.423Z,29.34
2022-09-11T12:19:23.777Z,29.99
2022-09-11T12:22:39.173Z,29.12
2022-09-11T12:26:05.204Z,29.55
2022-09-11T12:29:51.762Z,29.68
2022-09-11T12:32:57.191Z,29.45
2022-09-11T12:36:01.217Z,29.04
2022-09-11T12:39:16.174Z,29.41
2022-09-11T12:42:56.810Z,30.25
2022-09-11T12:46:00.269Z,29.96
2022-09-11T12:49:22.029Z,30.30
2022-09-11T12:52:42.874Z,31.18
2022-09-11T12:55:56.005Z,30.94
2022-09-11T12:59:04.904Z,31.97
2022-09-11T13:02:26.801Z,32.18
2022-09-11T13:05:34.735Z,31.80
2022-09-11T13:08:46.268Z,31.35
2022-09-11T13:11:51.197Z,30.86
2022-09-11T13:15:02.542Z,30.87
2022-09-11T13:18:31.720Z,30.97
2022-09-11T13:21:38.145Z,30.81
2022-09-11T13:24:41.461Z,31.45
2022-09-11T13:27:47.868Z,31.16
2022-09-11T13:31:05.295Z,30.99
2022-09-11T13:34:14.998Z,30.07
2022-09-11T13:37:36.588Z,29.75
2022-09-11T13:40:44.616Z,29.83
2022-09-11T13:43:50.893Z,30.04
2022-09-11T13:46:56.354Z,30.57
2022-09-11T13:50:03.273Z,30.55
2022-09-11T13:53:06.801Z,30.58
2022-09-11T13:56:21.589Z,30.24
2022-09-11T13:59:46.455Z,29.81
2022-09-11T14:02:58.659Z,30.06
2022-09-11T14:06:06.631Z,29.37
2022-09-11T14:09:19.412Z,28.54
2022-09-11T14:12:23.154Z,28.89
2022-09-11T14:15:35.258Z,29.96
2022-09-11T14:18:45.558Z,30.49
2022-09-11T14:21:50.763Z,30.55
2022-09-11T14:25:03.947Z,30.17
2022-09-11T14:28:07.658Z,30.44
2022-09-11T14:31:13.381Z,30.56
2022-09-11T14:34:19.772Z,30.62
2022-09-11T14:37:23.768Z,31.02
2022-09-11T14:40:27.307Z,30.90
2022-09-11T14:43:33.261Z,31.04
2022-09-11T14:46:37.107Z,31.02
2022-09-11T14:49:41.912Z,31.15
2022-09-11T14:52:46.523Z,31.71
2022-09-11T14:55:51.516Z,31.41
2022-09-11T14:58:55.176Z,31.83
2022-09-11T15:01:59.719Z,31.28
2022-09-11T15:05:04.401Z,31.76
2022-09-11T15:08:07.769Z,30.78
2022-09-11T15:11:11.034Z,30.21
2022-09-11T15:14:27.808Z,29.85
2022-09-11T15:17:36.500Z,30.57
2022-09-11T15:20:41.203Z,30.54
2022-09-11T15:23:50.108Z,30.31
2022-09-11T15:26:54.009Z,30.19
2022-09-11T15:29:57.442Z,30.08
2022-09-11T15:33:00.680Z,30.77
2022-09-11T15:36:06.880Z,29.98
2022-09-11T15:39:14.482Z,30.57
2022-09-11T15:42:17.901Z,30.64
2022-09-11T15:45:21.195Z,30.73
2022-09-11T15:48:24.502Z,30.62
2022-09-11T15:51:29.878Z,30.51
2022-09-11T15:54:33.154Z,30.79
2022-09-11T15:57:36.904Z,31.44
2022-09-11T16:00:40.167Z,32.05
2022-09-11T16:03:43.483Z,32.81
2022-09-11T16:06:49.912Z,33.07
2022-09-11T16:09:53.509Z,33.62
2022-09-11T16:12:58.973Z,34.28
2022-09-11T16:16:04.200Z,36.26
2022-09-11T16:19:07.592Z,36.73
2022-09-11T16:22:12.351Z,36.88
2022-09-11T16:25:16.143Z,37.13
2022-09-11T16:28:19.473Z,37.92
2022-09-11T16:31:22.878Z,38.12
2022-09-11T16:34:26.248Z,38.20
2022-09-11T16:37:32.897Z,38.19
2022-09-11T16:40:36.679Z,38.23
2022-09-11T16:43:41.232Z,38.30
2022-09-11T16:46:45.318Z,38.70
2022-09-11T16:53:13.981Z,38.88
2022-09-11T16:56:19.730Z,38.93
2022-09-11T16:59:23.050Z,38.85
2022-09-11T17:02:26.599Z,39.05
2022-09-11T17:05:29.908Z,39.28
2022-09-11T17:08:35.125Z,39.14
2022-09-11T17:11:38.508Z,39.14
2022-09-11T17:14:41.816Z,39.52
2022-09-11T17:17:45.052Z,39.61
2022-09-11T17:20:48.600Z,39.42
2022-09-11T17:23:54.615Z,39.53
2022-09-11T17:26:58.102Z,39.51
2022-09-11T17:30:01.533Z,39.04
2022-09-11T17:33:05.048Z,39.57
2022-09-11T17:36:10.801Z,39.26
2022-09-11T17:39:15.503Z,39.01
2022-09-11T17:42:18.736Z,39.17
2022-09-11T17:45:23.213Z,39.40
2022-09-11T17:48:26.616Z,39.47
2022-09-11T17:51:30.024Z,41.12
2022-09-11T17:54:34.845Z,43.31
2022-09-11T17:57:38.187Z,46.50
2022-09-11T18:00:41.542Z,51.32
2022-09-11T18:03:49.367Z,54.92
2022-09-11T18:06:55.789Z,55.58
2022-09-11T18:10:00.498Z,58.65
2022-09-11T18:13:03.759Z,59.36
2022-09-11T18:16:11.381Z,59.60
2022-09-11T18:19:16.576Z,61.77
2022-09-11T18:22:20.009Z,61.10
2022-09-11T18:25:26.134Z,60.90
2022-09-11T18:28:29.929Z,60.85
2022-09-11T18:31:39.940Z,65.22
2022-09-11T18:34:43.536Z,69.38
2022-09-11T18:37:46.781Z,71.88
2022-09-11T18:41:00.827Z,75.05
2022-09-11T18:44:08.328Z,72.09
2022-09-11T18:47:11.495Z,72.41
2022-09-11T18:50:14.784Z,70.17
2022-09-11T18:53:18.281Z,68.51
2022-09-11T18:56:24.296Z,69.56
2022-09-11T18:59:27.690Z,68.50
2022-09-11T19:02:30.891Z,67.31
2022-09-11T19:05:34.462Z,67.76
2022-09-11T19:08:38.784Z,72.42
2022-09-11T19:11:44.233Z,73.13
2022-09-11T19:14:49.204Z,74.16
2022-09-11T19:17:55.383Z,75.19
2022-09-11T19:21:00.375Z,74.69
2022-09-11T19:24:04.205Z,77.09
2022-09-11T19:27:08.860Z,77.92
2022-09-11T19:30:13.794Z,75.09
2022-09-11T19:33:17.061Z,74.37
2022-09-11T19:36:22.118Z,74.62
2022-09-11T19:39:26.852Z,74.85
2022-09-11T19:42:32.576Z,77.59
2022-09-11T19:45:35.851Z,79.88
2022-09-11T19:48:40.037Z,78.85
2022-09-11T19:51:45.055Z,78.78
2022-09-11T19:54:48.265Z,80.24
2022-09-11T19:57:52.973Z,81.89
2022-09-11T20:00:56.416Z,79.69
2022-09-11T20:04:01.805Z,81.58
2022-09-11T20:07:05.731Z,81.80
2022-09-11T20:10:10.980Z,83.11
2022-09-11T20:13:17.192Z,83.24
2022-09-11T20:16:23.590Z,82.29
2022-09-11T20:19:27.501Z,80.93
2022-09-11T20:22:30.973Z,81.32
2022-09-11T20:25:34.246Z,80.46
2022-09-11T20:28:39.710Z,82.05
2022-09-11T20:31:48.206Z,79.50
2022-09-11T20:34:52.465Z,81.34
2022-09-11T20:37:56.810Z,80.35
2022-09-11T20:41:00.694Z,78.12
2022-09-11T20:44:13.473Z,77.97
2022-09-11T20:47:17.236Z,79.13
2022-09-11T20:50:20.509Z,79.56
2022-09-11T20:53:23.908Z,80.89
2022-09-11T20:56:27.223Z,79.25
2022-09-11T20:59:31.923Z,77.13
2022-09-11T21:02:35.854Z,77.57
2022-09-11T21:05:39.697Z,76.16
2022-09-11T21:08:44.417Z,77.84
2022-09-11T21:11:48.126Z,76.77
2022-09-11T21:14:53.014Z,76.62
2022-09-11T21:17:57.118Z,75.64
2022-09-11T21:21:00.607Z,76.65
2022-09-11T21:24:05.756Z,74.91
2022-09-11T21:27:09.268Z,75.70
2022-09-11T21:30:15.231Z,73.21
2022-09-11T21:33:19.167Z,75.10
2022-09-11T21:36:22.544Z,74.82
2022-09-11T21:39:25.778Z,74.00
2022-09-11T21:42:29.054Z,73.08
2022-09-11T21:45:33.817Z,72.90
2022-09-11T21:48:38.612Z,71.94
2022-09-11T21:51:41.968Z,71.56
2022-09-11T21:54:45.272Z,71.22
2022-09-11T21:57:48.573Z,70.31
2022-09-11T22:00:53.395Z,70.00
2022-09-11T22:03:56.774Z,71.22
2022-09-11T22:07:00.477Z,69.29
2022-09-11T22:10:04.542Z,69.22
2022-09-11T22:13:07.869Z,70.88
2022-09-11T22:16:14.714Z,69.73
2022-09-11T22:19:18.133Z,71.12
2022-09-11T22:22:21.325Z,70.64
2022-09-11T22:25:24.631Z,71.41
2022-09-11T22:28:28.483Z,71.40
2022-09-11T22:31:33.299Z,72.94
2022-09-11T22:34:37.613Z,73.73
2022-09-11T22:37:40.868Z,74.41
2022-09-11T22:40:44.178Z,76.94
2022-09-11T22:43:50.144Z,75.52
2022-09-11T22:46:54.945Z,76.28
2022-09-11T22:49:58.216Z,76.19
2022-09-11T22:53:01.533Z,76.72
2022-09-11T22:56:04.804Z,77.92
2022-09-11T22:59:08.227Z,77.76
2022-09-11T23:02:13.636Z,79.85
2022-09-11T23:05:34.453Z,80.17
2022-09-11T23:08:39.573Z,80.75
2022-09-11T23:11:42.835Z,81.00
2022-09-11T23:14:46.136Z,80.72
2022-09-11T23:17:50.892Z,80.92
2022-09-11T23:20:54.774Z,80.39
2022-09-11T23:23:59.462Z,81.44
2022-09-11T23:27:02.689Z,80.44
2022-09-11T23:30:06.623Z,80.41
2022-09-11T23:33:11.908Z,79.29
2022-09-11T23:36:16.973Z,80.77
2022-09-11T23:39:20.253Z,80.62
2022-09-11T23:42:24.579Z,79.93
2022-09-11T23:45:27.930Z,81.41
2022-09-11T23:48:32.947Z,80.63
2022-09-11T23:51:36.225Z,78.37
2022-09-11T23:54:39.551Z,76.56
2022-09-11T23:57:42.847Z,76.52
